Decoded Metar for KTXK (TEXARKANA in AR, USA) (IATA:TXK) | Meteo·Mobile Aviation Weather
aviador You're here:

KTXK Decoded Metar

TEXARKANA in AR, USA
Report Time2019-09-23 08:53:00
UTC Time2019-09-23 08:56:48
Flight Rules vfr VFR
Wind180° at 05 kt
W.Decomp.*RWY 13: 3.5 kt HW 3.5 kt RCW
RWY 22: 3.5 kt HW 3.5 kt LCW
Visibility9999 m
Phenomena:N/A
Clouds:N/A
Expected CloudBase > 800 ft AGL from Temp-Dew spread
CeilingNone
Temp24°C (ISA +10)
Dew Point22°C (89% RH)
QNH1017 hPa
Density Alt1,706 ft
Elevation364 ft
Report Wrong Elevation
Raw Report
METAR KTXK 230853Z AUTO 18005KT 10SM CLR 24/22 A3002 RMK AO2 SLP160
T02390222 58002=

Extra information for KTXK:More info

Metar Taf Metar & Taf Last 4 Metars F.Rules Stats Wind Profile Meteogram Temp Stats Airport Information Weather charts Add Link Nearby VenuesMetar ALERT Operation Metar Decoded Social comments

AIRNAV info for KTXK